Terminal Aerodrome Forecast
Issued by NWS

Home | Current Version | Previous Version | Text Only | Print | Product List | Glossary On
Versions: 1 2 3 4 5 6 7 8 9 10 11 12 13 14 15 16 17
000
FTUS43 KABR 021722
TAFATY
TAF
KATY 021722Z 0218/0318 17018G24KT P6SM BKN170
     FM030300 17013KT P6SM VCTS BKN050CB OVC120
     FM030700 18010KT P6SM OVC120
     FM031100 24006KT 4SM BR OVC020=

USA.gov is the U.S. government's official web portal to all federal, state and local government web resources and services.